sensor_id;sensor_type;location;lat;lon;timestamp;pressure;altitude;pressure_sealevel;temperature;humidity
74936;BME280;63501;55.570;37.488;2022-10-16T00:01:11;100321.69;;;1.94;76.65
74936;BME280;63501;55.570;37.488;2022-10-16T00:03:38;100315.75;;;1.92;76.57
74936;BME280;63501;55.570;37.488;2022-10-16T00:06:05;100328.06;;;1.89;76.32
74936;BME280;63501;55.570;37.488;2022-10-16T00:08:31;100326.16;;;1.90;77.32
74936;BME280;63501;55.570;37.488;2022-10-16T00:11:11;100328.72;;;1.86;76.69
74936;BME280;63501;55.570;37.488;2022-10-16T00:13:39;100330.44;;;1.82;76.77
74936;BME280;63501;55.570;37.488;2022-10-16T00:16:06;100332.38;;;1.81;77.05
74936;BME280;63501;55.570;37.488;2022-10-16T00:18:32;100334.09;;;1.77;76.81
74936;BME280;63501;55.570;37.488;2022-10-16T00:21:09;100328.16;;;1.75;77.26
74936;BME280;63501;55.570;37.488;2022-10-16T00:23:42;100335.66;;;1.70;77.58
74936;BME280;63501;55.570;37.488;2022-10-16T00:26:11;100336.47;;;1.70;77.45
74936;BME280;63501;55.570;37.488;2022-10-16T00:28:38;100336.25;;;1.67;77.61
74936;BME280;63501;55.570;37.488;2022-10-16T00:31:05;100329.41;;;1.69;77.47
74936;BME280;63501;55.570;37.488;2022-10-16T00:33:32;100333.84;;;1.65;77.84
74936;BME280;63501;55.570;37.488;2022-10-16T00:35:58;100336.91;;;1.64;77.83
74936;BME280;63501;55.570;37.488;2022-10-16T00:38:24;100334.19;;;1.64;77.74
74936;BME280;63501;55.570;37.488;2022-10-16T00:40:50;100340.09;;;1.66;77.33
74936;BME280;63501;55.570;37.488;2022-10-16T00:43:48;100336.38;;;1.62;77.29
74936;BME280;63501;55.570;37.488;2022-10-16T00:46:23;100325.56;;;1.48;77.72
74936;BME280;63501;55.570;37.488;2022-10-16T00:49:12;100340.78;;;1.49;77.66
74936;BME280;63501;55.570;37.488;2022-10-16T00:51:44;100331.31;;;1.46;77.89
74936;BME280;63501;55.570;37.488;2022-10-16T00:54:16;100332.84;;;1.39;77.72
74936;BME280;63501;55.570;37.488;2022-10-16T00:56:44;100342.25;;;1.32;78.02
74936;BME280;63501;55.570;37.488;2022-10-16T00:59:20;100345.47;;;1.35;77.60
74936;BME280;63501;55.570;37.488;2022-10-16T01:01:48;100347.91;;;1.36;78.41
74936;BME280;63501;55.570;37.488;2022-10-16T01:04:14;100343.44;;;1.40;77.79
74936;BME280;63501;55.570;37.488;2022-10-16T01:09:54;100352.13;;;1.42;78.30
74936;BME280;63501;55.570;37.488;2022-10-16T01:21:35;100357.75;;;1.46;78.12
74936;BME280;63501;55.570;37.488;2022-10-16T01:34:49;100360.47;;;1.46;77.88
74936;BME280;63501;55.570;37.488;2022-10-16T01:37:23;100374.09;;;1.46;78.24
74936;BME280;63501;55.570;37.488;2022-10-16T01:39:54;100368.94;;;1.44;77.94
74936;BME280;63501;55.570;37.488;2022-10-16T01:42:24;100375.84;;;1.42;77.91
74936;BME280;63501;55.570;37.488;2022-10-16T01:44:52;100369.69;;;1.36;78.10
74936;BME280;63501;55.570;37.488;2022-10-16T01:47:22;100365.84;;;1.37;78.17
74936;BME280;63501;55.570;37.488;2022-10-16T01:49:49;100362.81;;;1.39;78.29
74936;BME280;63501;55.570;37.488;2022-10-16T01:52:20;100358.59;;;1.32;78.44
74936;BME280;63501;55.570;37.488;2022-10-16T01:54:49;100367.16;;;1.40;78.12
74936;BME280;63501;55.570;37.488;2022-10-16T01:57:17;100362.81;;;1.39;77.83
74936;BME280;63501;55.570;37.488;2022-10-16T01:59:48;100363.63;;;1.39;78.29
74936;BME280;63501;55.570;37.488;2022-10-16T02:02:17;100372.44;;;1.36;78.19
74936;BME280;63501;55.570;37.488;2022-10-16T02:04:51;100368.38;;;1.33;78.29
74936;BME280;63501;55.570;37.488;2022-10-16T02:07:18;100372.72;;;1.35;77.99
74936;BME280;63501;55.570;37.488;2022-10-16T02:09:44;100365.16;;;1.31;78.69
74936;BME280;63501;55.570;37.488;2022-10-16T02:12:25;100366.56;;;1.29;77.95
74936;BME280;63501;55.570;37.488;2022-10-16T02:14:52;100376.19;;;1.26;78.22
74936;BME280;63501;55.570;37.488;2022-10-16T02:17:19;100369.13;;;1.25;78.08
74936;BME280;63501;55.570;37.488;2022-10-16T02:19:46;100371.22;;;1.28;78.57
74936;BME280;63501;55.570;37.488;2022-10-16T02:22:18;100375.38;;;1.26;78.66
74936;BME280;63501;55.570;37.488;2022-10-16T02:25:10;100377.66;;;1.32;77.92
74936;BME280;63501;55.570;37.488;2022-10-16T02:28:38;100368.69;;;1.32;77.86
74936;BME280;63501;55.570;37.488;2022-10-16T02:33:01;100379.28;;;1.33;78.21
74936;BME280;63501;55.570;37.488;2022-10-16T02:35:29;100383.22;;;1.27;77.79
74936;BME280;63501;55.570;37.488;2022-10-16T02:37:56;100386.06;;;1.22;78.58
74936;BME280;63501;55.570;37.488;2022-10-16T02:40:23;100391.13;;;1.15;78.51
74936;BME280;63501;55.570;37.488;2022-10-16T02:42:53;100390.13;;;1.11;78.47
74936;BME280;63501;55.570;37.488;2022-10-16T02:45:20;100388.31;;;1.06;79.16
74936;BME280;63501;55.570;37.488;2022-10-16T02:47:46;100388.72;;;1.00;78.30
74936;BME280;63501;55.570;37.488;2022-10-16T02:50:11;100389.34;;;0.97;78.79
74936;BME280;63501;55.570;37.488;2022-10-16T02:52:37;100384.81;;;0.92;78.94
74936;BME280;63501;55.570;37.488;2022-10-16T02:55:03;100387.53;;;0.92;79.30
74936;BME280;63501;55.570;37.488;2022-10-16T02:57:28;100391.38;;;0.91;79.55
74936;BME280;63501;55.570;37.488;2022-10-16T02:59:54;100389.53;;;0.87;79.49
74936;BME280;63501;55.570;37.488;2022-10-16T03:02:19;100391.78;;;0.85;79.74
74936;BME280;63501;55.570;37.488;2022-10-16T03:04:45;100383.41;;;0.81;78.73
74936;BME280;63501;55.570;37.488;2022-10-16T03:07:11;100383.41;;;0.81;79.75
74936;BME280;63501;55.570;37.488;2022-10-16T03:09:36;100392.97;;;0.78;79.81
74936;BME280;63501;55.570;37.488;2022-10-16T03:12:02;100383.28;;;0.72;79.67
74936;BME280;63501;55.570;37.488;2022-10-16T03:14:27;100393.78;;;0.79;80.06
74936;BME280;63501;55.570;37.488;2022-10-16T03:16:53;100394.88;;;0.78;80.21
74936;BME280;63501;55.570;37.488;2022-10-16T03:19:18;100397.09;;;0.76;79.37
74936;BME280;63501;55.570;37.488;2022-10-16T03:21:44;100397.69;;;0.73;80.05
74936;BME280;63501;55.570;37.488;2022-10-16T03:24:10;100397.81;;;0.68;79.92
74936;BME280;63501;55.570;37.488;2022-10-16T03:26:36;100398.63;;;0.68;80.04
74936;BME280;63501;55.570;37.488;2022-10-16T03:29:02;100404.56;;;0.70;79.79
74936;BME280;63501;55.570;37.488;2022-10-16T03:31:28;100405.16;;;0.67;80.59
74936;BME280;63501;55.570;37.488;2022-10-16T03:33:54;100405.16;;;0.67;79.98
74936;BME280;63501;55.570;37.488;2022-10-16T03:36:19;100409.31;;;0.65;80.56
74936;BME280;63501;55.570;37.488;2022-10-16T03:38:45;100403.88;;;0.65;79.81
74936;BME280;63501;55.570;37.488;2022-10-16T03:41:11;100410.09;;;0.65;79.84
74936;BME280;63501;55.570;37.488;2022-10-16T03:43:36;100409.09;;;0.61;80.52
74936;BME280;63501;55.570;37.488;2022-10-16T03:46:02;100414.03;;;0.59;80.83
74936;BME280;63501;55.570;37.488;2022-10-16T03:48:27;100401.53;;;0.58;80.70
74936;BME280;63501;55.570;37.488;2022-10-16T03:50:53;100404.25;;;0.58;80.77
74936;BME280;63501;55.570;37.488;2022-10-16T03:53:18;100409.19;;;0.56;80.14
74936;BME280;63501;55.570;37.488;2022-10-16T03:55:44;100412.75;;;0.57;80.81
74936;BME280;63501;55.570;37.488;2022-10-16T03:58:10;100417.06;;;0.58;80.87
74936;BME280;63501;55.570;37.488;2022-10-16T04:00:40;100409.81;;;0.53;81.03
74936;BME280;63501;55.570;37.488;2022-10-16T04:03:06;100414.63;;;0.56;81.02
74936;BME280;63501;55.570;37.488;2022-10-16T04:05:31;100414.84;;;0.60;80.19
74936;BME280;63501;55.570;37.488;2022-10-16T04:07:57;100419.25;;;0.56;80.13
74936;BME280;63501;55.570;37.488;2022-10-16T04:10:22;100412.53;;;0.53;80.26
74936;BME280;63501;55.570;37.488;2022-10-16T04:12:48;100413.91;;;0.50;80.40
74936;BME280;63501;55.570;37.488;2022-10-16T04:15:13;100416.34;;;0.52;79.99
74936;BME280;63501;55.570;37.488;2022-10-16T04:17:39;100417.75;;;0.49;80.46
74936;BME280;63501;55.570;37.488;2022-10-16T04:20:05;100417.97;;;0.53;80.39
74936;BME280;63501;55.570;37.488;2022-10-16T04:22:30;100418.19;;;0.57;80.32
74936;BME280;63501;55.570;37.488;2022-10-16T04:24:56;100410.59;;;0.53;80.30
74936;BME280;63501;55.570;37.488;2022-10-16T04:27:21;100423.81;;;0.60;80.63
74936;BME280;63501;55.570;37.488;2022-10-16T04:29:47;100413.44;;;0.62;79.57
74936;BME280;63501;55.570;37.488;2022-10-16T04:32:12;100423.22;;;0.63;80.62
74936;BME280;63501;55.570;37.488;2022-10-16T04:34:39;100426.94;;;0.67;79.90
74936;BME280;63501;55.570;37.488;2022-10-16T04:37:05;100422.00;;;0.69;80.41
74936;BME280;63501;55.570;37.488;2022-10-16T04:39:31;100429.88;;;0.71;80.33
74936;BME280;63501;55.570;37.488;2022-10-16T04:41:56;100431.47;;;0.72;79.72
74936;BME280;63501;55.570;37.488;2022-10-16T04:44:22;100427.16;;;0.71;79.81
74936;BME280;63501;55.570;37.488;2022-10-16T04:46:50;100431.69;;;0.75;79.61
74936;BME280;63501;55.570;37.488;2022-10-16T04:49:16;100423.84;;;0.74;79.42
74936;BME280;63501;55.570;37.488;2022-10-16T04:51:41;100434.63;;;0.79;79.41
74936;BME280;63501;55.570;37.488;2022-10-16T04:54:07;100429.38;;;0.83;79.92
74936;BME280;63501;55.570;37.488;2022-10-16T04:56:32;100434.22;;;0.86;79.53
74936;BME280;63501;55.570;37.488;2022-10-16T04:58:57;100431.50;;;0.86;79.32
74936;BME280;63501;55.570;37.488;2022-10-16T05:01:23;100430.88;;;0.89;79.68
74936;BME280;63501;55.570;37.488;2022-10-16T05:03:48;100431.69;;;0.89;78.80
74936;BME280;63501;55.570;37.488;2022-10-16T05:06:14;100430.28;;;0.92;78.95
74936;BME280;63501;55.570;37.488;2022-10-16T05:08:39;100436.75;;;0.96;79.16
74936;BME280;63501;55.570;37.488;2022-10-16T05:11:05;100426.66;;;0.96;79.38
74936;BME280;63501;55.570;37.488;2022-10-16T05:13:30;100438.03;;;0.98;79.29
74936;BME280;63501;55.570;37.488;2022-10-16T05:15:56;100434.53;;;0.98;78.58
74936;BME280;63501;55.570;37.488;2022-10-16T05:18:22;100434.72;;;1.01;78.38
74936;BME280;63501;55.570;37.488;2022-10-16T05:20:48;100431.38;;;1.04;78.29
74936;BME280;63501;55.570;37.488;2022-10-16T05:23:13;100434.81;;;1.10;78.88
74936;BME280;63501;55.570;37.488;2022-10-16T05:25:39;100434.81;;;1.10;78.83
74936;BME280;63501;55.570;37.488;2022-10-16T05:28:04;100436.63;;;1.15;78.67
74936;BME280;63501;55.570;37.488;2022-10-16T05:30:29;100441.44;;;1.18;78.86
74936;BME280;63501;55.570;37.488;2022-10-16T05:32:55;100436.22;;;1.21;78.35
74936;BME280;63501;55.570;37.488;2022-10-16T05:35:21;100436.09;;;1.26;78.27
74936;BME280;63501;55.570;37.488;2022-10-16T05:37:47;100439.53;;;1.32;77.80
74936;BME280;63501;55.570;37.488;2022-10-16T05:40:13;100435.09;;;1.36;78.00
74936;BME280;63501;55.570;37.488;2022-10-16T05:42:39;100442.34;;;1.41;78.11
74936;BME280;63501;55.570;37.488;2022-10-16T05:45:06;100440.94;;;1.43;77.51
74936;BME280;63501;55.570;37.488;2022-10-16T05:47:32;100447.88;;;1.49;78.10
74936;BME280;63501;55.570;37.488;2022-10-16T05:49:57;100442.63;;;1.53;77.47
74936;BME280;63501;55.570;37.488;2022-10-16T05:52:23;100438.28;;;1.52;77.42
74936;BME280;63501;55.570;37.488;2022-10-16T05:54:48;100454.50;;;1.57;77.72
74936;BME280;63501;55.570;37.488;2022-10-16T05:57:14;100456.03;;;1.63;77.76
74936;BME280;63501;55.570;37.488;2022-10-16T05:59:40;100457.00;;;1.67;77.53
74936;BME280;63501;55.570;37.488;2022-10-16T06:02:05;100461.88;;;1.70;77.11
74936;BME280;63501;55.570;37.488;2022-10-16T06:04:31;100456.31;;;1.75;77.24
74936;BME280;63501;55.570;37.488;2022-10-16T06:07:00;100458.91;;;1.80;76.74
74936;BME280;63501;55.570;37.488;2022-10-16T06:09:25;100462.25;;;1.77;76.72
74936;BME280;63501;55.570;37.488;2022-10-16T06:11:51;100459.59;;;1.86;77.35
74936;BME280;63501;55.570;37.488;2022-10-16T06:14:16;100462.81;;;1.88;76.47
74936;BME280;63501;55.570;37.488;2022-10-16T06:16:42;100459.16;;;1.93;77.01
74936;BME280;63501;55.570;37.488;2022-10-16T06:19:07;100464.31;;;1.94;76.48
74936;BME280;63501;55.570;37.488;2022-10-16T06:21:34;100465.00;;;2.00;76.39
74936;BME280;63501;55.570;37.488;2022-10-16T06:24:00;100470.34;;;2.05;76.49
74936;BME280;63501;55.570;37.488;2022-10-16T06:26:28;100452.69;;;2.02;76.30
74936;BME280;63501;55.570;37.488;2022-10-16T06:28:55;100458.50;;;2.09;76.09
74936;BME280;63501;55.570;37.488;2022-10-16T06:31:21;100463.63;;;2.11;76.70
74936;BME280;63501;55.570;37.488;2022-10-16T06:33:50;100461.59;;;2.17;76.79
74936;BME280;63501;55.570;37.488;2022-10-16T06:36:17;100465.00;;;2.22;76.31
74936;BME280;63501;55.570;37.488;2022-10-16T06:38:43;100464.88;;;2.27;75.97
74936;BME280;63501;55.570;37.488;2022-10-16T06:41:11;100463.16;;;2.31;76.43
74936;BME280;63501;55.570;37.488;2022-10-16T06:43:37;100457.25;;;2.38;76.42
74936;BME280;63501;55.570;37.488;2022-10-16T06:46:04;100464.06;;;2.49;76.01
74936;BME280;63501;55.570;37.488;2022-10-16T06:48:30;100463.47;;;2.61;75.96
74936;BME280;63501;55.570;37.488;2022-10-16T06:51:07;100462.56;;;2.74;75.70
74936;BME280;63501;55.570;37.488;2022-10-16T06:53:35;100465.34;;;2.83;76.13
74936;BME280;63501;55.570;37.488;2022-10-16T06:58:37;100472.03;;;3.08;74.78
74936;BME280;63501;55.570;37.488;2022-10-16T07:01:04;100462.28;;;3.24;74.65
74936;BME280;63501;55.570;37.488;2022-10-16T07:03:29;100467.47;;;3.34;74.19
74936;BME280;63501;55.570;37.488;2022-10-16T07:05:55;100464.91;;;3.47;74.32
74936;BME280;63501;55.570;37.488;2022-10-16T07:08:21;100464.47;;;3.62;73.83
74936;BME280;63501;55.570;37.488;2022-10-16T07:10:47;100462.22;;;3.72;73.46
74936;BME280;63501;55.570;37.488;2022-10-16T07:13:13;100458.38;;;3.82;72.87
74936;BME280;63501;55.570;37.488;2022-10-16T07:15:40;100459.66;;;3.93;72.68
74936;BME280;63501;55.570;37.488;2022-10-16T07:18:06;100461.09;;;4.00;72.37
74936;BME280;63501;55.570;37.488;2022-10-16T07:20:32;100466.88;;;4.07;72.31
74936;BME280;63501;55.570;37.488;2022-10-16T07:22:57;100472.84;;;4.17;72.40
74936;BME280;63501;55.570;37.488;2022-10-16T07:25:23;100460.59;;;4.23;71.78
74936;BME280;63501;55.570;37.488;2022-10-16T07:27:49;100473.63;;;4.35;71.80
74936;BME280;63501;55.570;37.488;2022-10-16T07:30:14;100464.56;;;4.52;71.49
74936;BME280;63501;55.570;37.488;2022-10-16T07:32:40;100465.19;;;4.66;71.19
74936;BME280;63501;55.570;37.488;2022-10-16T07:35:06;100462.91;;;4.77;70.47
74936;BME280;63501;55.570;37.488;2022-10-16T07:37:31;100454.31;;;4.87;70.41
74936;BME280;63501;55.570;37.488;2022-10-16T07:39:57;100458.91;;;5.04;70.88
74936;BME280;63501;55.570;37.488;2022-10-16T07:42:23;100449.94;;;5.24;69.76
74936;BME280;63501;55.570;37.488;2022-10-16T07:44:48;100464.69;;;5.41;68.80
74936;BME280;63501;55.570;37.488;2022-10-16T07:47:14;100454.47;;;5.50;69.08
74936;BME280;63501;55.570;37.488;2022-10-16T07:49:39;100454.88;;;5.61;68.31
74936;BME280;63501;55.570;37.488;2022-10-16T07:52:05;100450.50;;;5.68;68.11
74936;BME280;63501;55.570;37.488;2022-10-16T07:54:31;100459.44;;;5.77;67.91
74936;BME280;63501;55.570;37.488;2022-10-16T07:56:56;100447.41;;;5.91;66.79
74936;BME280;63501;55.570;37.488;2022-10-16T07:59:22;100464.38;;;5.93;66.43
74936;BME280;63501;55.570;37.488;2022-10-16T08:01:49;100444.94;;;5.98;66.70
74936;BME280;63501;55.570;37.488;2022-10-16T08:04:14;100455.88;;;6.06;66.57
74936;BME280;63501;55.570;37.488;2022-10-16T08:06:40;100447.47;;;6.24;65.86
74936;BME280;63501;55.570;37.488;2022-10-16T08:09:06;100445.56;;;6.36;65.49
74936;BME280;63501;55.570;37.488;2022-10-16T08:11:33;100454.19;;;6.47;64.89
74936;BME280;63501;55.570;37.488;2022-10-16T08:13:58;100456.59;;;6.49;63.86
74936;BME280;63501;55.570;37.488;2022-10-16T08:16:24;100445.03;;;6.55;64.32
74936;BME280;63501;55.570;37.488;2022-10-16T08:18:49;100443.00;;;6.65;64.58
74936;BME280;63501;55.570;37.488;2022-10-16T08:21:18;100443.94;;;6.81;64.26
74936;BME280;63501;55.570;37.488;2022-10-16T08:23:44;100442.81;;;6.94;63.52
74936;BME280;63501;55.570;37.488;2022-10-16T08:26:10;100439.84;;;7.11;63.70
74936;BME280;63501;55.570;37.488;2022-10-16T08:28:36;100445.09;;;7.29;63.21
74936;BME280;63501;55.570;37.488;2022-10-16T08:31:11;100440.41;;;7.41;62.05
74936;BME280;63501;55.570;37.488;2022-10-16T08:33:38;100431.66;;;7.64;61.62
74936;BME280;63501;55.570;37.488;2022-10-16T08:36:05;100435.44;;;8.00;61.51
74936;BME280;63501;55.570;37.488;2022-10-16T08:38:31;100424.63;;;8.35;59.60
74936;BME280;63501;55.570;37.488;2022-10-16T08:43:48;100422.66;;;9.11;56.97
74936;BME280;63501;55.570;37.488;2022-10-16T08:46:48;100413.44;;;10.31;53.28
74936;BME280;63501;55.570;37.488;2022-10-16T08:49:17;100406.97;;;11.16;51.60
74936;BME280;63501;55.570;37.488;2022-10-16T08:51:44;100390.59;;;11.86;50.06
74936;BME280;63501;55.570;37.488;2022-10-16T08:56:46;100382.03;;;13.97;45.10
74936;BME280;63501;55.570;37.488;2022-10-16T08:59:13;100381.38;;;14.47;43.40
74936;BME280;63501;55.570;37.488;2022-10-16T09:01:45;100375.88;;;14.65;43.57
74936;BME280;63501;55.570;37.488;2022-10-16T09:06:41;100393.34;;;14.62;42.05
74936;BME280;63501;55.570;37.488;2022-10-16T09:09:23;100390.94;;;14.64;42.22
74936;BME280;63501;55.570;37.488;2022-10-16T09:12:14;100396.13;;;14.79;40.52
74936;BME280;63501;55.570;37.488;2022-10-16T09:15:02;100408.06;;;15.12;40.79
74936;BME280;63501;55.570;37.488;2022-10-16T09:22:45;100398.47;;;15.42;41.18
74936;BME280;63501;55.570;37.488;2022-10-16T09:25:20;100396.34;;;15.99;39.42
74936;BME280;63501;55.570;37.488;2022-10-16T09:27:48;100379.84;;;16.89;40.23
74936;BME280;63501;55.570;37.488;2022-10-16T09:30:20;100379.31;;;17.84;37.36
74936;BME280;63501;55.570;37.488;2022-10-16T09:32:50;100385.97;;;17.97;37.98
74936;BME280;63501;55.570;37.488;2022-10-16T09:35:22;100383.13;;;18.58;36.56
74936;BME280;63501;55.570;37.488;2022-10-16T09:37:54;100389.41;;;18.93;36.48
74936;BME280;63501;55.570;37.488;2022-10-16T09:40:29;100401.97;;;19.08;33.09
74936;BME280;63501;55.570;37.488;2022-10-16T09:46:19;100397.31;;;17.83;35.52
74936;BME280;63501;55.570;37.488;2022-10-16T09:48:50;100416.34;;;17.95;34.96
74936;BME280;63501;55.570;37.488;2022-10-16T09:51:24;100402.44;;;17.50;35.44
74936;BME280;63501;55.570;37.488;2022-10-16T09:54:01;100416.06;;;17.03;36.13
74936;BME280;63501;55.570;37.488;2022-10-16T09:56:30;100413.59;;;16.53;36.37
74936;BME280;63501;55.570;37.488;2022-10-16T09:59:16;100430.41;;;16.43;36.57
74936;BME280;63501;55.570;37.488;2022-10-16T10:02:10;100415.72;;;16.35;36.00
74936;BME280;63501;55.570;37.488;2022-10-16T10:04:47;100423.50;;;15.84;37.29
74936;BME280;63501;55.570;37.488;2022-10-16T10:07:21;100408.00;;;15.73;37.66
74936;BME280;63501;55.570;37.488;2022-10-16T10:09:49;100425.06;;;15.96;37.98
74936;BME280;63501;55.570;37.488;2022-10-16T10:12:26;100398.59;;;16.29;37.32
74936;BME280;63501;55.570;37.488;2022-10-16T10:14:55;100412.97;;;16.28;36.63
74936;BME280;63501;55.570;37.488;2022-10-16T10:17:23;100402.44;;;16.50;37.14
74936;BME280;63501;55.570;37.488;2022-10-16T10:20:00;100414.69;;;16.74;36.40
74936;BME280;63501;55.570;37.488;2022-10-16T10:27:46;100392.22;;;17.33;36.77
74936;BME280;63501;55.570;37.488;2022-10-16T10:36:12;100409.97;;;16.60;35.82
74936;BME280;63501;55.570;37.488;2022-10-16T10:38:47;100408.00;;;16.53;36.80
74936;BME280;63501;55.570;37.488;2022-10-16T10:55:53;100383.47;;;17.72;34.93
74936;BME280;63501;55.570;37.488;2022-10-16T10:58:44;100394.22;;;17.36;35.95
74936;BME280;63501;55.570;37.488;2022-10-16T11:01:29;100396.13;;;17.42;36.13
74936;BME280;63501;55.570;37.488;2022-10-16T11:06:43;100389.97;;;17.17;36.07
74936;BME280;63501;55.570;37.488;2022-10-16T11:09:36;100397.50;;;16.79;36.24
74936;BME280;63501;55.570;37.488;2022-10-16T11:12:17;100387.41;;;16.92;35.78
74936;BME280;63501;55.570;37.488;2022-10-16T11:14:58;100394.22;;;16.91;35.52
74936;BME280;63501;55.570;37.488;2022-10-16T11:17:37;100391.94;;;16.79;36.39
74936;BME280;63501;55.570;37.488;2022-10-16T11:23:16;100392.00;;;16.64;36.81
74936;BME280;63501;55.570;37.488;2022-10-16T11:25:33;100389.56;;;16.74;36.39
74936;BME280;63501;55.570;37.488;2022-10-16T11:30:35;100389.19;;;17.16;36.62
74936;BME280;63501;55.570;37.488;2022-10-16T11:33:25;100365.88;;;17.34;35.23
74936;BME280;63501;55.570;37.488;2022-10-16T11:44:25;100377.59;;;16.70;37.42
74936;BME280;63501;55.570;37.488;2022-10-16T11:49:31;100388.19;;;17.41;36.27
74936;BME280;63501;55.570;37.488;2022-10-16T11:54:37;100396.31;;;17.25;35.52
74936;BME280;63501;55.570;37.488;2022-10-16T11:57:17;100383.47;;;16.86;36.50
74936;BME280;63501;55.570;37.488;2022-10-16T11:59:52;100375.09;;;16.89;36.53
74936;BME280;63501;55.570;37.488;2022-10-16T12:07:39;100380.75;;;16.79;35.69
74936;BME280;63501;55.570;37.488;2022-10-16T12:10:26;100386.41;;;16.61;36.56
74936;BME280;63501;55.570;37.488;2022-10-16T12:12:52;100370.81;;;16.74;36.72
74936;BME280;63501;55.570;37.488;2022-10-16T12:15:29;100372.84;;;17.15;36.30
74936;BME280;63501;55.570;37.488;2022-10-16T12:17:55;100370.94;;;17.05;35.97
74936;BME280;63501;55.570;37.488;2022-10-16T12:25:33;100386.19;;;14.61;38.47
74936;BME280;63501;55.570;37.488;2022-10-16T12:30:31;100403.72;;;13.12;42.52
74936;BME280;63501;55.570;37.488;2022-10-16T12:33:03;100405.31;;;12.65;43.24
74936;BME280;63501;55.570;37.488;2022-10-16T12:35:35;100404.13;;;12.25;44.20
74936;BME280;63501;55.570;37.488;2022-10-16T12:41:12;100411.41;;;11.77;45.11
74936;BME280;63501;55.570;37.488;2022-10-16T12:43:42;100412.03;;;11.63;45.52
74936;BME280;63501;55.570;37.488;2022-10-16T12:48:34;100401.72;;;11.33;47.16
74936;BME280;63501;55.570;37.488;2022-10-16T12:51:22;100409.72;;;11.12;47.42
74936;BME280;63501;55.570;37.488;2022-10-16T12:54:14;100409.78;;;10.93;47.42
74936;BME280;63501;55.570;37.488;2022-10-16T12:59:33;100411.28;;;10.64;48.37
74936;BME280;63501;55.570;37.488;2022-10-16T13:11:05;100417.16;;;10.39;48.83
74936;BME280;63501;55.570;37.488;2022-10-16T13:16:33;100400.41;;;10.13;49.65
74936;BME280;63501;55.570;37.488;2022-10-16T13:21:53;100405.34;;;10.03;49.79
74936;BME280;63501;55.570;37.488;2022-10-16T13:25:44;100411.41;;;9.90;49.63
74936;BME280;63501;55.570;37.488;2022-10-16T13:27:57;100414.16;;;9.90;49.82
74936;BME280;63501;55.570;37.488;2022-10-16T13:30:27;100406.97;;;9.85;50.35
74936;BME280;63501;55.570;37.488;2022-10-16T13:33:02;100402.97;;;9.83;50.57
74936;BME280;63501;55.570;37.488;2022-10-16T13:35:31;100408.03;;;9.80;51.05
74936;BME280;63501;55.570;37.488;2022-10-16T13:38:04;100404.84;;;9.78;50.57
74936;BME280;63501;55.570;37.488;2022-10-16T13:40:30;100407.03;;;9.69;50.93
74936;BME280;63501;55.570;37.488;2022-10-16T13:42:59;100410.88;;;9.65;51.00
74936;BME280;63501;55.570;37.488;2022-10-16T13:45:25;100407.25;;;9.61;50.84
74936;BME280;63501;55.570;37.488;2022-10-16T13:48:02;100407.53;;;9.56;51.81
74936;BME280;63501;55.570;37.488;2022-10-16T13:50:28;100408.59;;;9.51;52.13
74936;BME280;63501;55.570;37.488;2022-10-16T13:53:13;100408.88;;;9.46;52.31
74936;BME280;63501;55.570;37.488;2022-10-16T13:55:41;100415.47;;;9.41;52.05
74936;BME280;63501;55.570;37.488;2022-10-16T13:58:08;100407.47;;;9.36;52.72
74936;BME280;63501;55.570;37.488;2022-10-16T14:00:36;100402.22;;;9.31;52.82
74936;BME280;63501;55.570;37.488;2022-10-16T14:03:05;100407.59;;;9.24;52.55
74936;BME280;63501;55.570;37.488;2022-10-16T14:05:32;100406.63;;;9.16;53.15
74936;BME280;63501;55.570;37.488;2022-10-16T14:08:00;100410.38;;;9.08;53.21
74936;BME280;63501;55.570;37.488;2022-10-16T14:10:30;100405.06;;;8.99;53.32
74936;BME280;63501;55.570;37.488;2022-10-16T14:13:05;100402.56;;;8.94;53.30
74936;BME280;63501;55.570;37.488;2022-10-16T14:15:33;100411.47;;;8.88;54.15
74936;BME280;63501;55.570;37.488;2022-10-16T14:17:59;100414.50;;;8.83;54.21
74936;BME280;63501;55.570;37.488;2022-10-16T14:20:30;100411.25;;;8.81;54.43
74936;BME280;63501;55.570;37.488;2022-10-16T14:28:37;100407.34;;;8.50;54.40
74936;BME280;63501;55.570;37.488;2022-10-16T14:31:28;100414.97;;;8.41;55.50
74936;BME280;63501;55.570;37.488;2022-10-16T14:33:54;100410.75;;;8.31;55.86
74936;BME280;63501;55.570;37.488;2022-10-16T14:36:21;100413.06;;;8.29;55.82
74936;BME280;63501;55.570;37.488;2022-10-16T14:39:00;100414.81;;;8.21;56.28
74936;BME280;63501;55.570;37.488;2022-10-16T14:41:30;100417.94;;;8.20;55.97
74936;BME280;63501;55.570;37.488;2022-10-16T14:44:01;100417.38;;;8.14;56.58
74936;BME280;63501;55.570;37.488;2022-10-16T14:46:36;100420.16;;;8.02;56.82
74936;BME280;63501;55.570;37.488;2022-10-16T14:51:38;100420.22;;;7.90;56.91
74936;BME280;63501;55.570;37.488;2022-10-16T14:54:08;100414.94;;;7.85;56.86
74936;BME280;63501;55.570;37.488;2022-10-16T14:56:42;100433.53;;;7.88;56.86
74936;BME280;63501;55.570;37.488;2022-10-16T14:59:34;100421.63;;;7.84;57.10
74936;BME280;63501;55.570;37.488;2022-10-16T15:01:58;100424.72;;;7.82;57.16
74936;BME280;63501;55.570;37.488;2022-10-16T15:04:24;100423.47;;;7.80;57.14
74936;BME280;63501;55.570;37.488;2022-10-16T15:06:49;100430.84;;;7.76;57.54
74936;BME280;63501;55.570;37.488;2022-10-16T15:09:15;100429.13;;;7.71;57.11
74936;BME280;63501;55.570;37.488;2022-10-16T15:11:41;100424.22;;;7.64;57.13
74936;BME280;63501;55.570;37.488;2022-10-16T15:14:12;100412.88;;;7.54;57.37
74936;BME280;63501;55.570;37.488;2022-10-16T15:16:38;100429.75;;;7.52;57.98